Main page
METAR-TAF:

METAR-TAF

Airports :

João Paulo II Airport

Ponta Delgada, Azores, Portugal

latitude: 37-44N, longitude: 025-42W, elevation: 71 m

Current weather observation

The report was made 21 minutes ago, at 10:00 UTC
Wind 7 kt from the North/Northwest
Temperature 16°C
Humidity 68%
Pressure 1015 hPa
Visibility 10 km or more
Few clouds at a height of 2300 ft

METAR: LPPD 191000Z 33007KT 9999 FEW023 16/10 Q1015

Time: 09:21 (10:21 UTC)

Forecast

The report was made 5 hours and 21 minutes ago, at 05:00 UTC
Forecast valid from 19 at 06 UTC to 20 at 06 UTC
Wind 12 kt from the North/Northwest
Visibility 10 km or more
Scattered clouds at a height of 1800 ft
Temporary
from 19 at 06 UTC to 20 at 06 UTC
Few clouds at a height of 1500 ft
Broken clouds at a height of 3000 ft

TAF: LPPD 190500Z 1906/2006 34012KT 9999 SCT018 TEMPO 1906/2006 FEW015 BKN030

Weather observations and forecasts of more than 4000 airports (METAR and TAF reports).

The available stations are represented by yellow and red dots on the map.

Hover mouse over dot to see the name of the station.

Then click to see weather observations and forecasts.

To change the map : click on the green buttons with a black cross to zoom in, on the green button with a dash to zoom out, or on the green arrows for adjacent maps.


METAR-TAF: